Impacts METAR Board
IDs:

KSEA - Seattle-Tacoma Intl, WA, US

Updated at: 1800 UTC 22 Sep 2018
Potential Impact None Slight Moderate High
Time 22/06Z 22/07Z 22/08Z 22/09Z 22/10Z 22/11Z 22/12Z 22/13Z 22/14Z 22/15Z 22/16Z 22/17Z 22/18Z
Temp60 61 62 61 62 62 61 60 59 59 61 64 64
Dewpt57 57 56 55 54 53 53 54 54 54 54 54 53
Altim29.87 29.86 29.87 29.88 29.87 29.86 29.87 29.87 29.87 29.88 29.88 29.89 29.91
VIS4 9 10 10 10 10 10 5 8 8 10 10 10
CIG21 36 46 47 45 43 33 27 29 34 34 49 26
CoverOVCOVCBKNOVCOVCOVCOVCOVCOVCOVCBKNBKNOVC
FltCatMVFRVFRVFRVFRVFRVFRVFRMVFRMVFRVFRVFRVFRMVFR
WX-RA BR-------------RA----------
WDir210190180190190170210200190180190180190
WSpd7 10 9 9 10 11 14 10 11 12 13 13 11
WGst-- 16 -- -- -- -- 21 -- -- -- 21 -- --
Raw hourly METARs
KSEA 220603Z 21007KT 4SM -RA BR FEW012 BKN021 OVC030 16/14 A2987 RMK AO2 P0000 T01560139
KSEA 220653Z 19010G16KT 9SM SCT016 SCT028 OVC036 16/14 A2986 RMK AO2 RAE17 SLP116 P0000 T01610139
KSEA 220753Z 18009KT 10SM FEW020 BKN046 17/13 A2987 RMK AO2 SLP117 T01670133 402220150
KSEA 220853Z 19009KT 10SM FEW020 BKN047 OVC055 16/13 A2988 RMK AO2 SLP121 60000 T01610128 53003
KSEA 220953Z 19010KT 10SM FEW020 BKN045 OVC060 17/12 A2987 RMK AO2 SLP120 T01670122
KSEA 221053Z 17011KT 10SM BKN043 OVC055 17/12 A2986 RMK AO2 SLP116 T01670117
KSEA 221153Z 21014G21KT 10SM BKN033 OVC043 16/12 A2987 RMK AO2 RAB19E38 SLP118 P0001 60001 70003 T01610117 10167 20156 55003
KSEA 221253Z 20010KT 5SM -RA BKN027 OVC033 16/12 A2987 RMK AO2 RAB44 SLP118 P0001 T01560122
KSEA 221353Z 19011KT 8SM FEW018 FEW023 OVC029 15/12 A2987 RMK AO2 RAE52 SLP121 P0003 T01500122
KSEA 221453Z 18012KT 8SM FEW026 BKN034 OVC043 15/12 A2988 RMK AO2 SLP123 60004 T01500122 53004
KSEA 221553Z 19013G21KT 10SM FEW021 BKN034 16/12 A2988 RMK AO2 SLP123 T01610122
KSEA 221653Z 18013KT 10SM FEW021 BKN049 18/12 A2989 RMK AO2 PK WND 18027/1558 SLP128 T01780122
KSEA 221753Z 19011KT 10SM OVC026 18/12 A2991 RMK AO2 SLP132 60004 T01780117 10178 20144 53009



Page loaded:  18:37 UTC  |   11:37 AM Pacific  |   12:37 PM Mountain  |   01:37 PM Central  |   02:37 PM Eastern

 

ADVISORIES

FORECASTS

FORECASTS

OBSERVATIONS

USER TOOLS

ABOUT US